Archival Weather

Bob Hope

Burbank, California (KBUR)

Report from: Monday, January 29, 2024 9:53 AM PST
Current time: Friday, June 14, 2024 4:19 AM PDT

Current weather – Weather history – Daily summaries
Weather forecast

Temperature19.4°C (66.9°F)
Dew point4.4°C (39.9°F)
Winds Calm
Visibility10 mi. (16.1 km)
Clouds Sky clear
Altimeter30.15 in.Hg (1021 mB)
Relative humidity37 %
Density altitude410 ft. (125 m)
Sea-level pressure102.0 kPa (1020 mB, 30.12 in.Hg)
Max temp last 6 hours19.4°C (66.9°F)
Min temp last 6 hours9.4°C (48.9°F)
Remarks Automated weather observing station with precipitation discriminator
Pressure rising, then falling
Flight conditions Visual Meteorological Conditions
Raw dataKBUR 291753Z 00000KT 10SM CLR 19/04 A3015 RMK AO2 SLP201 T01940044 10194 20094 50004
An error has occurred. This application may no longer respond until reloaded. Reload 🗙